Time;durP1;ratioP1;P1;durP2;ratioP2;P2;SDS_P1;SDS_P2;PMS_P1;PMS_P2;Temp;Humidity;BMP_temperature;BMP_pressure;BME280_temperature;BME280_humidity;BME280_pressure;Samples;Min_cycle;Max_cycle;Signal;HPM_P1;HPM_P2
2021/11/14 00:02:26;;;;;;;27.75;12.68;;;11.90;99.90;;;;;;5067962;28;20196;-66
2021/11/14 00:04:51;;;;;;;21.40;11.25;;;11.80;99.90;;;;;;5068331;28;20172;-66
2021/11/14 00:07:17;;;;;;;29.38;13.30;;;11.80;99.90;;;;;;5068460;28;20220;-67
2021/11/14 00:09:44;;;;;;;26.55;12.68;;;11.80;99.90;;;;;;5068199;28;20669;-66
2021/11/14 00:12:11;;;;;;;28.10;13.45;;;11.80;99.90;;;;;;5068106;28;20169;-66
2021/11/14 00:14:36;;;;;;;30.45;13.98;;;11.80;99.90;;;;;;5068150;28;20297;-66
2021/11/14 00:17:02;;;;;;;36.45;16.73;;;11.80;99.90;;;;;;5067907;28;20169;-66
2021/11/14 00:19:28;;;;;;;42.28;17.25;;;11.90;99.90;;;;;;5068238;28;20157;-66
2021/11/14 00:21:54;;;;;;;32.88;14.63;;;11.80;99.90;;;;;;5068140;28;20287;-66
2021/11/14 00:24:20;;;;;;;34.15;14.75;;;11.70;99.90;;;;;;5068033;28;20172;-66
2021/11/14 00:26:46;;;;;;;25.60;13.48;;;11.70;99.90;;;;;;5068323;28;20186;-66
2021/11/14 00:29:11;;;;;;;21.02;11.43;;;11.70;99.90;;;;;;5065902;28;20267;-66
2021/11/14 00:31:38;;;;;;;29.35;12.43;;;11.80;99.90;;;;;;5067306;28;20172;-66
2021/11/14 00:34:05;;;;;;;31.83;12.57;;;11.90;99.90;;;;;;5066329;28;20517;-67
2021/11/14 00:36:32;;;;;;;33.50;13.57;;;11.90;99.90;;;;;;5067740;28;20193;-66
2021/11/14 00:38:59;;;;;;;34.78;14.00;;;12.00;99.90;;;;;;5067911;28;20169;-67
2021/11/14 00:41:25;;;;;;;26.25;13.65;;;12.00;99.90;;;;;;5066313;28;20803;-66
2021/11/14 00:43:52;;;;;;;26.75;13.27;;;12.10;99.90;;;;;;5067093;28;20156;-66
2021/11/14 00:46:18;;;;;;;23.85;12.95;;;12.00;99.90;;;;;;5067022;28;20176;-66
2021/11/14 00:48:45;;;;;;;28.35;13.57;;;12.00;99.90;;;;;;5067264;28;20173;-67
2021/11/14 00:51:18;;;;;;;27.90;13.80;;;12.00;99.90;;;;;;5066962;28;20169;-66
2021/11/14 00:53:44;;;;;;;25.30;12.43;;;12.00;99.90;;;;;;5066822;28;20208;-67
2021/11/14 00:56:10;;;;;;;26.65;13.57;;;11.90;99.90;;;;;;5067225;28;20211;-67
2021/11/14 00:58:36;;;;;;;28.75;13.40;;;11.80;99.90;;;;;;5067154;28;20241;-66
2021/11/14 01:01:02;;;;;;;29.40;13.43;;;11.70;99.90;;;;;;5067580;28;20172;-66
2021/11/14 01:03:28;;;;;;;30.92;13.23;;;11.70;99.90;;;;;;5066877;28;20169;-66
2021/11/14 01:05:54;;;;;;;24.33;12.50;;;11.70;99.90;;;;;;5066251;28;20188;-66
2021/11/14 01:08:20;;;;;;;27.75;14.43;;;11.80;99.90;;;;;;5067202;28;20161;-66
2021/11/14 01:10:50;;;;;;;24.00;12.48;;;11.80;99.90;;;;;;5067217;28;20157;-66
2021/11/14 01:13:16;;;;;;;28.20;13.02;;;11.80;99.90;;;;;;5066703;28;20232;-66
2021/11/14 01:15:43;;;;;;;23.25;13.57;;;11.80;99.90;;;;;;5067106;28;20168;-66
2021/11/14 01:18:09;;;;;;;29.45;13.43;;;11.90;99.90;;;;;;5066729;28;20169;-66
2021/11/14 01:20:38;;;;;;;27.60;13.20;;;12.00;99.90;;;;;;5067152;28;20169;-66
2021/11/14 01:23:06;;;;;;;25.10;13.82;;;12.00;99.90;;;;;;5066647;28;20188;-66
2021/11/14 01:25:32;;;;;;;30.05;14.60;;;12.00;99.90;;;;;;5066947;28;20165;-66
2021/11/14 01:27:59;;;;;;;25.48;13.52;;;12.10;99.90;;;;;;5066776;28;20165;-66
2021/11/14 01:30:28;;;;;;;27.35;14.27;;;12.20;99.90;;;;;;5066878;28;20168;-66
2021/11/14 01:32:55;;;;;;;23.88;13.98;;;12.10;99.90;;;;;;5066093;28;20232;-66
2021/11/14 01:35:22;;;;;;;29.75;14.63;;;12.10;99.90;;;;;;5066780;28;20652;-66
2021/11/14 01:37:50;;;;;;;27.95;14.80;;;12.10;99.90;;;;;;5066706;28;20165;-66
2021/11/14 01:40:29;;;;;;;30.98;14.65;;;12.10;99.90;;;;;;5066795;28;20160;-67
2021/11/14 01:42:55;;;;;;;26.10;14.05;;;12.10;99.90;;;;;;5065705;28;20282;-66
2021/11/14 01:45:21;;;;;;;26.65;14.45;;;12.00;99.90;;;;;;5065201;28;20188;-66
2021/11/14 01:47:47;;;;;;;24.63;13.75;;;12.00;99.90;;;;;;5065680;28;20169;-66
2021/11/14 01:50:15;;;;;;;24.23;14.50;;;12.10;99.90;;;;;;5066673;28;20530;-67
2021/11/14 01:52:45;;;;;;;27.75;14.95;;;12.10;99.90;;;;;;5066263;28;20172;-66
2021/11/14 01:55:15;;;;;;;26.88;14.40;;;12.10;99.90;;;;;;5066445;28;20161;-66
2021/11/14 01:57:41;;;;;;;25.02;15.27;;;12.20;99.90;;;;;;5066403;28;20191;-66
2021/11/14 02:00:23;;;;;;;25.00;14.05;;;12.20;99.90;;;;;;5066453;28;20164;-66
2021/11/14 02:02:49;;;;;;;24.88;14.25;;;12.10;99.90;;;;;;5065586;28;20192;-66
2021/11/14 02:05:15;;;;;;;28.00;14.48;;;12.10;99.90;;;;;;5066181;28;20165;-66
2021/11/14 02:07:40;;;;;;;20.95;13.50;;;12.10;99.90;;;;;;5066407;28;20165;-66
2021/11/14 02:10:09;;;;;;;26.48;13.93;;;12.20;99.90;;;;;;5066414;28;20332;-66
2021/11/14 02:12:35;;;;;;;27.75;14.52;;;12.20;99.90;;;;;;5065859;28;20186;-66
2021/11/14 02:15:01;;;;;;;29.02;13.70;;;12.20;99.90;;;;;;5066151;28;20165;-66
2021/11/14 02:17:26;;;;;;;23.08;13.38;;;12.10;99.90;;;;;;5065503;28;20173;-66
2021/11/14 02:19:53;;;;;;;23.08;14.30;;;12.10;99.90;;;;;;5066395;28;20165;-66
2021/11/14 02:22:19;;;;;;;23.30;14.18;;;12.20;99.90;;;;;;5065805;28;20195;-66
2021/11/14 02:24:46;;;;;;;18.52;13.57;;;12.20;99.90;;;;;;5066066;28;20176;-66
2021/11/14 02:27:12;;;;;;;26.15;14.90;;;12.20;99.90;;;;;;5065931;28;20173;-66
2021/11/14 02:29:38;;;;;;;25.17;14.50;;;12.20;99.90;;;;;;5065946;28;20153;-66
2021/11/14 02:32:04;;;;;;;24.58;13.70;;;12.30;99.90;;;;;;5065543;28;20181;-66
2021/11/14 02:34:30;;;;;;;24.00;14.70;;;12.30;99.90;;;;;;5065817;28;20157;-66
2021/11/14 02:36:55;;;;;;;30.25;15.45;;;12.30;99.90;;;;;;5065974;28;20530;-67
2021/11/14 02:39:21;;;;;;;24.55;15.60;;;12.20;99.90;;;;;;5065973;28;20164;-66
2021/11/14 02:41:47;;;;;;;28.15;15.63;;;12.10;99.90;;;;;;5065659;28;20189;-66
2021/11/14 02:44:13;;;;;;;29.98;15.55;;;12.10;99.90;;;;;;5065872;28;20194;-66
2021/11/14 02:46:39;;;;;;;30.00;18.10;;;12.10;99.90;;;;;;5065345;28;20164;-66
2021/11/14 02:49:05;;;;;;;24.73;16.95;;;12.10;99.90;;;;;;5065881;28;20156;-67
2021/11/14 02:51:32;;;;;;;27.45;17.20;;;12.20;99.90;;;;;;5065766;28;20812;-67
2021/11/14 02:54:00;;;;;;;26.08;17.50;;;12.10;99.90;;;;;;5068851;28;20179;-67
2021/11/14 02:56:26;;;;;;;25.52;15.52;;;12.10;99.90;;;;;;5069831;28;20211;-67
2021/11/14 02:58:52;;;;;;;27.70;15.98;;;12.20;99.90;;;;;;5069569;28;20165;-66
2021/11/14 03:01:26;;;;;;;26.27;15.32;;;12.30;99.90;;;;;;5069570;28;20195;-67
2021/11/14 03:03:53;;;;;;;21.92;15.63;;;12.30;99.90;;;;;;5069309;28;20204;-67
2021/11/14 03:06:19;;;;;;;22.95;14.57;;;12.20;99.90;;;;;;5069717;28;20195;-67
2021/11/14 03:08:45;;;;;;;24.50;15.35;;;12.10;99.90;;;;;;5069526;28;20165;-66
2021/11/14 03:11:11;;;;;;;25.63;15.48;;;12.20;99.90;;;;;;5069522;28;20656;-67
2021/11/14 03:13:37;;;;;;;22.95;15.05;;;12.20;99.90;;;;;;5068862;28;20262;-67
2021/11/14 03:16:10;;;;;;;24.65;15.43;;;12.20;99.90;;;;;;5069496;28;20614;-66
2021/11/14 03:18:36;;;;;;;24.80;14.43;;;12.20;99.90;;;;;;5069085;28;20168;-67
2021/11/14 03:21:03;;;;;;;23.88;15.25;;;12.30;99.90;;;;;;5069161;28;20194;-67
2021/11/14 03:23:30;;;;;;;23.15;14.57;;;12.30;99.90;;;;;;5068952;28;20165;-67
2021/11/14 03:25:57;;;;;;;20.77;14.65;;;12.30;99.90;;;;;;5069191;28;20176;-66
2021/11/14 03:28:23;;;;;;;26.77;16.05;;;12.40;99.90;;;;;;5069030;28;20529;-66
2021/11/14 03:30:51;;;;;;;23.70;14.93;;;12.30;99.90;;;;;;5069193;28;20161;-67
2021/11/14 03:33:17;;;;;;;25.30;15.15;;;12.30;99.90;;;;;;5068561;28;20176;-66
2021/11/14 03:36:14;;;;;;;22.88;14.48;;;12.20;99.90;;;;;;5069214;28;20199;-67
2021/11/14 03:38:50;;;;;;;19.30;13.88;;;12.30;99.90;;;;;;5064358;28;20172;-67
2021/11/14 03:41:19;;;;;;;23.33;15.45;;;12.20;99.90;;;;;;5068814;28;20575;-67
2021/11/14 03:43:46;;;;;;;27.17;14.82;;;12.30;99.90;;;;;;5067335;28;20168;-67
2021/11/14 03:46:13;;;;;;;24.23;14.45;;;12.30;99.90;;;;;;5067598;28;20658;-66
2021/11/14 03:48:41;;;;;;;26.05;15.35;;;12.30;99.90;;;;;;5068302;28;20222;-66
2021/11/14 03:51:07;;;;;;;26.90;15.30;;;12.40;99.90;;;;;;5068703;28;20221;-66
2021/11/14 03:53:33;;;;;;;28.05;15.07;;;12.40;99.90;;;;;;5068401;28;20168;-66
2021/11/14 03:55:59;;;;;;;26.88;15.25;;;12.50;99.90;;;;;;5068681;28;20153;-67
2021/11/14 03:58:25;;;;;;;23.23;15.30;;;12.40;99.90;;;;;;5068597;28;20236;-67
2021/11/14 04:00:57;;;;;;;21.17;15.27;;;12.40;99.90;;;;;;5068644;28;20165;-66
2021/11/14 04:03:23;;;;;;;24.00;15.10;;;12.30;99.90;;;;;;5067940;28;20184;-66
2021/11/14 04:05:49;;;;;;;26.45;14.63;;;12.30;99.90;;;;;;5067924;28;20163;-66
2021/11/14 04:08:18;;;;;;;22.85;15.00;;;12.30;99.90;;;;;;5068524;28;20165;-67
2021/11/14 04:10:47;;;;;;;27.42;15.30;;;12.40;99.90;;;;;;5068479;28;20160;-67
2021/11/14 04:13:14;;;;;;;22.88;15.52;;;12.40;99.90;;;;;;5067915;28;20275;-66
2021/11/14 04:15:40;;;;;;;30.10;15.75;;;12.50;99.90;;;;;;5068502;28;20179;-67
2021/11/14 04:18:06;;;;;;;23.63;15.77;;;12.60;99.90;;;;;;5066586;28;20168;-66
2021/11/14 04:20:35;;;;;;;29.25;16.27;;;12.50;99.90;;;;;;5068438;28;20255;-66
2021/11/14 04:23:02;;;;;;;23.30;16.27;;;12.40;99.90;;;;;;5067761;28;20646;-66
2021/11/14 04:25:28;;;;;;;31.23;15.43;;;12.30;99.90;;;;;;5068192;28;20250;-66
2021/11/14 04:27:55;;;;;;;27.67;15.85;;;12.30;99.90;;;;;;5068174;28;20193;-66
2021/11/14 04:30:21;;;;;;;26.73;16.38;;;12.20;99.90;;;;;;5068107;28;20161;-66
2021/11/14 04:32:47;;;;;;;29.00;16.83;;;12.20;99.90;;;;;;5067402;28;20255;-66
2021/11/14 04:35:13;;;;;;;34.03;17.00;;;12.30;99.90;;;;;;5068030;28;20164;-66
2021/11/14 04:37:38;;;;;;;40.50;17.63;;;12.20;99.90;;;;;;5067895;28;20169;-66
2021/11/14 04:40:06;;;;;;;30.40;17.30;;;12.20;99.90;;;;;;5067972;28;20211;-67
2021/11/14 04:42:32;;;;;;;27.85;16.35;;;12.30;99.90;;;;;;5067444;28;20665;-66
2021/11/14 04:44:59;;;;;;;35.88;19.13;;;12.30;99.90;;;;;;5067539;28;20165;-66
2021/11/14 04:47:24;;;;;;;40.05;19.60;;;12.40;99.90;;;;;;5067237;28;20233;-66
2021/11/14 04:49:50;;;;;;;37.67;18.88;;;12.50;99.90;;;;;;5067753;28;20153;-66
2021/11/14 04:52:16;;;;;;;36.83;18.23;;;12.60;99.90;;;;;;5067414;28;20596;-67
2021/11/14 04:54:42;;;;;;;39.75;20.33;;;12.60;99.90;;;;;;5067405;28;20165;-66
2021/11/14 04:57:07;;;;;;;36.75;19.67;;;12.70;99.90;;;;;;5067431;28;20220;-67
2021/11/14 04:59:33;;;;;;;42.55;19.02;;;12.70;99.90;;;;;;5067465;28;20203;-67
2021/11/14 05:01:59;;;;;;;42.20;20.52;;;12.70;99.90;;;;;;5066405;28;20192;-66
2021/11/14 05:04:25;;;;;;;34.10;19.48;;;12.70;99.90;;;;;;5067115;28;20667;-66
2021/11/14 05:06:51;;;;;;;41.13;19.23;;;12.70;99.90;;;;;;5067022;28;20216;-67
2021/11/14 05:09:17;;;;;;;36.67;19.15;;;12.70;99.90;;;;;;5067160;28;20168;-66
2021/11/14 05:11:42;;;;;;;41.67;20.58;;;12.70;99.90;;;;;;5067284;28;20164;-67
2021/11/14 05:14:08;;;;;;;39.10;20.15;;;12.70;99.90;;;;;;5066654;28;20295;-66
2021/11/14 05:16:34;;;;;;;38.67;21.02;;;12.70;99.90;;;;;;5065980;28;20215;-66
2021/11/14 05:18:59;;;;;;;46.58;20.10;;;12.70;99.90;;;;;;5066766;28;20168;-67
2021/11/14 05:21:25;;;;;;;38.03;20.50;;;12.80;99.90;;;;;;5066796;28;20720;-67
2021/11/14 05:23:51;;;;;;;42.88;21.45;;;12.80;99.90;;;;;;5066593;28;20176;-67
2021/11/14 05:26:17;;;;;;;42.65;21.83;;;12.80;99.90;;;;;;5066838;28;20153;-67
2021/11/14 05:28:44;;;;;;;41.88;21.13;;;12.80;99.90;;;;;;5066756;28;20163;-67
2021/11/14 05:31:10;;;;;;;44.20;21.15;;;12.80;99.90;;;;;;5066835;28;20161;-67
2021/11/14 05:33:36;;;;;;;55.97;22.50;;;12.80;99.90;;;;;;5064872;28;20165;-66
2021/11/14 05:36:02;;;;;;;42.92;21.35;;;12.80;99.90;;;;;;5066778;28;20224;-67
2021/11/14 05:38:28;;;;;;;48.20;21.08;;;12.70;99.90;;;;;;5066491;28;20181;-68
2021/11/14 05:40:53;;;;;;;39.88;21.15;;;12.80;99.90;;;;;;5066737;28;20168;-66
2021/11/14 05:43:19;;;;;;;40.10;20.88;;;12.70;99.90;;;;;;5066158;28;20188;-67
2021/11/14 05:45:45;;;;;;;45.00;21.48;;;12.70;99.90;;;;;;5066511;28;20239;-67
2021/11/14 05:48:11;;;;;;;47.22;22.33;;;12.70;99.90;;;;;;5065936;28;20173;-67
2021/11/14 05:50:37;;;;;;;48.25;22.35;;;12.70;99.90;;;;;;5066561;28;20223;-66
2021/11/14 05:53:03;;;;;;;43.70;20.88;;;12.70;99.90;;;;;;5064776;28;20184;-66
2021/11/14 05:55:29;;;;;;;43.30;21.15;;;12.70;99.90;;;;;;5066244;28;20203;-67
2021/11/14 05:58:02;;;;;;;46.65;23.33;;;12.70;99.90;;;;;;5065307;28;20153;-66
2021/11/14 06:00:58;;;;;;;40.90;21.05;;;12.60;99.90;;;;;;5066454;28;20152;-67
2021/11/14 06:03:40;;;;;;;46.90;22.23;;;12.60;99.90;;;;;;5065447;28;20228;-67
2021/11/14 06:06:07;;;;;;;45.58;22.25;;;12.60;99.90;;;;;;5065026;28;20161;-67
2021/11/14 06:08:33;;;;;;;50.33;22.40;;;12.50;99.90;;;;;;5066016;28;20192;-66
2021/11/14 06:10:59;;;;;;;40.53;20.63;;;12.40;99.90;;;;;;5066185;28;20164;-66
2021/11/14 06:13:27;;;;;;;47.88;20.98;;;12.40;99.90;;;;;;5065667;28;20216;-66
2021/11/14 06:15:53;;;;;;;46.88;21.90;;;12.50;99.90;;;;;;5066086;28;20191;-66
2021/11/14 06:18:19;;;;;;;41.13;20.02;;;12.50;99.90;;;;;;5064451;28;20177;-66
2021/11/14 06:20:44;;;;;;;42.10;20.08;;;12.50;99.90;;;;;;5066096;28;20669;-66
2021/11/14 06:23:12;;;;;;;47.28;22.88;;;12.50;99.90;;;;;;5065708;28;20188;-66
2021/11/14 06:25:37;;;;;;;47.72;21.30;;;12.50;99.90;;;;;;5066059;28;20153;-66
2021/11/14 06:28:03;;;;;;;44.03;21.58;;;12.50;99.90;;;;;;5069626;28;20188;-66
2021/11/14 06:30:30;;;;;;;40.05;19.50;;;12.50;99.90;;;;;;5072582;28;20164;-66
2021/11/14 06:32:56;;;;;;;44.35;20.40;;;12.50;99.90;;;;;;5071892;28;20168;-66
2021/11/14 06:35:22;;;;;;;45.45;21.42;;;12.50;99.90;;;;;;5072611;28;20173;-67
2021/11/14 06:37:48;;;;;;;49.97;24.25;;;12.50;99.90;;;;;;5071919;28;20415;-66
2021/11/14 06:40:14;;;;;;;49.28;22.52;;;12.60;99.90;;;;;;5072405;28;20160;-66
2021/11/14 06:42:41;;;;;;;52.13;21.15;;;12.60;99.90;;;;;;5072237;28;20196;-66
2021/11/14 06:45:07;;;;;;;43.55;21.77;;;12.60;99.90;;;;;;5072521;28;20167;-66
2021/11/14 06:47:32;;;;;;;39.78;20.98;;;12.60;99.90;;;;;;5071880;28;20176;-66
2021/11/14 06:49:58;;;;;;;44.05;21.45;;;12.60;99.90;;;;;;5072645;28;20248;-66
2021/11/14 06:52:24;;;;;;;47.65;21.70;;;12.50;99.90;;;;;;5072091;28;20549;-66
2021/11/14 06:54:51;;;;;;;38.95;20.63;;;12.50;99.90;;;;;;5072037;28;20164;-66
2021/11/14 06:57:18;;;;;;;43.10;21.33;;;12.50;99.90;;;;;;5072430;28;20171;-66
2021/11/14 06:59:44;;;;;;;43.65;20.63;;;12.50;99.90;;;;;;5072263;28;20558;-66
2021/11/14 07:02:10;;;;;;;43.00;20.20;;;12.50;99.90;;;;;;5071855;28;20259;-66
2021/11/14 07:04:36;;;;;;;43.65;21.77;;;12.50;99.90;;;;;;5072060;28;20169;-66
2021/11/14 07:07:02;;;;;;;51.22;22.17;;;12.50;99.90;;;;;;5072421;28;20661;-66
2021/11/14 07:09:28;;;;;;;39.72;20.88;;;12.50;99.90;;;;;;5072228;28;20211;-66
2021/11/14 07:11:54;;;;;;;48.28;19.70;;;12.50;99.90;;;;;;5072375;28;20165;-66
2021/11/14 07:14:23;;;;;;;39.22;20.27;;;12.50;99.90;;;;;;5071741;28;20224;-66
2021/11/14 07:16:50;;;;;;;40.92;19.83;;;12.50;99.90;;;;;;5072012;28;20169;-66
2021/11/14 07:19:16;;;;;;;41.97;19.90;;;12.50;99.90;;;;;;5071038;28;20530;-66
2021/11/14 07:21:42;;;;;;;42.05;20.27;;;12.50;99.90;;;;;;5072071;28;20330;-66
2021/11/14 07:24:08;;;;;;;41.13;18.70;;;12.50;99.90;;;;;;5071736;28;20171;-66
2021/11/14 07:26:34;;;;;;;36.75;18.95;;;12.50;99.90;;;;;;5072119;28;20633;-66
2021/11/14 07:28:59;;;;;;;42.90;19.48;;;12.50;99.90;;;;;;5072119;28;20165;-66
2021/11/14 07:31:25;;;;;;;45.55;19.70;;;12.50;99.90;;;;;;5071940;28;20255;-67
2021/11/14 07:33:51;;;;;;;45.25;19.85;;;12.60;99.90;;;;;;5071399;28;20195;-66
2021/11/14 07:36:17;;;;;;;39.63;18.70;;;12.60;99.90;;;;;;5071782;28;20156;-66
2021/11/14 07:38:43;;;;;;;46.05;20.58;;;12.60;99.90;;;;;;5070638;28;20161;-66
2021/11/14 07:41:09;;;;;;;45.70;20.83;;;12.60;99.90;;;;;;5067139;28;20224;-66
2021/11/14 07:43:35;;;;;;;45.70;21.50;;;12.60;99.90;;;;;;5068493;28;20169;-66
2021/11/14 07:46:02;;;;;;;42.63;20.63;;;12.70;99.90;;;;;;5068896;28;20229;-66
2021/11/14 07:48:28;;;;;;;38.95;18.73;;;12.70;99.90;;;;;;5068155;28;20172;-66
2021/11/14 07:50:54;;;;;;;47.45;22.23;;;12.70;99.90;;;;;;5068733;28;20164;-66
2021/11/14 07:53:22;;;;;;;45.72;21.67;;;12.70;99.90;;;;;;5068070;28;20171;-66
2021/11/14 07:55:49;;;;;;;42.78;21.50;;;12.80;99.90;;;;;;5067974;28;20220;-67
2021/11/14 07:58:15;;;;;;;49.88;22.83;;;13.00;99.90;;;;;;5068173;28;20168;-66
2021/11/14 08:00:41;;;;;;;46.78;23.42;;;13.00;99.90;;;;;;5068020;28;20169;-66
2021/11/14 08:03:07;;;;;;;46.90;23.60;;;12.90;99.90;;;;;;5067210;28;20192;-66
2021/11/14 08:05:33;;;;;;;48.58;24.73;;;12.90;99.90;;;;;;5068095;28;20631;-66
2021/11/14 08:07:59;;;;;;;44.45;23.05;;;13.00;99.90;;;;;;5066710;28;20199;-66
2021/11/14 08:10:25;;;;;;;46.22;23.40;;;13.00;99.90;;;;;;5068164;28;20168;-66
2021/11/14 08:12:51;;;;;;;46.70;25.20;;;13.00;99.90;;;;;;5067911;28;20217;-66
2021/11/14 08:15:18;;;;;;;46.45;24.42;;;13.00;99.90;;;;;;5067616;28;20176;-66
2021/11/14 08:17:44;;;;;;;45.35;24.52;;;13.00;99.90;;;;;;5067578;28;20192;-66
2021/11/14 08:20:10;;;;;;;49.78;25.55;;;13.10;99.90;;;;;;5067842;28;20164;-67
2021/11/14 08:22:37;;;;;;;49.75;25.17;;;13.10;99.90;;;;;;5066433;28;20201;-66
2021/11/14 08:25:04;;;;;;;48.20;23.95;;;13.20;99.90;;;;;;5067736;28;20251;-67
2021/11/14 08:27:31;;;;;;;49.72;24.70;;;13.20;99.90;;;;;;5066569;28;20167;-66
2021/11/14 08:29:58;;;;;;;51.85;24.98;;;13.20;99.90;;;;;;5067672;28;20637;-67
2021/11/14 08:32:25;;;;;;;49.25;24.75;;;13.30;99.90;;;;;;5067181;28;20181;-66
2021/11/14 08:34:51;;;;;;;55.15;29.38;;;13.30;99.90;;;;;;5066447;28;20446;-66
2021/11/14 08:37:16;;;;;;;50.58;25.58;;;13.50;99.90;;;;;;5067377;28;20164;-66
2021/11/14 08:39:42;;;;;;;53.97;27.00;;;13.40;99.90;;;;;;5067167;28;20176;-66
2021/11/14 08:42:09;;;;;;;55.20;25.63;;;13.40;99.90;;;;;;5067481;28;20219;-66
2021/11/14 08:44:34;;;;;;;51.00;26.05;;;13.40;99.90;;;;;;5067243;28;20191;-66
2021/11/14 08:47:00;;;;;;;49.10;25.73;;;13.20;99.90;;;;;;5067158;28;20161;-66
2021/11/14 08:49:26;;;;;;;57.88;27.45;;;13.20;99.90;;;;;;5066800;28;20165;-67
2021/11/14 08:51:52;;;;;;;51.10;25.92;;;13.20;99.90;;;;;;5067048;28;20176;-66
2021/11/14 08:54:19;;;;;;;54.70;26.77;;;13.20;99.90;;;;;;5066847;28;20184;-66
2021/11/14 08:56:45;;;;;;;61.28;30.35;;;13.20;99.90;;;;;;5066335;28;20404;-66
2021/11/14 08:59:11;;;;;;;55.70;27.25;;;13.50;99.90;;;;;;5066889;28;20168;-66
2021/11/14 09:01:38;;;;;;;59.95;27.63;;;13.40;99.90;;;;;;5066986;28;20192;-67
2021/11/14 09:04:07;;;;;;;57.03;27.90;;;13.40;99.90;;;;;;5065146;28;20173;-66
2021/11/14 09:06:33;;;;;;;62.33;30.95;;;13.40;99.90;;;;;;5066787;28;20404;-66
2021/11/14 09:08:59;;;;;;;56.67;28.25;;;13.60;99.90;;;;;;5066672;28;20158;-66
2021/11/14 09:11:25;;;;;;;59.63;28.65;;;13.50;99.90;;;;;;5067150;28;20252;-66
2021/11/14 09:13:51;;;;;;;58.70;28.90;;;13.50;99.90;;;;;;5066396;28;20622;-67
2021/11/14 09:16:17;;;;;;;63.40;28.38;;;13.50;99.90;;;;;;5066646;28;20225;-67
2021/11/14 09:18:43;;;;;;;57.45;27.60;;;13.50;99.90;;;;;;5066385;28;20175;-66
2021/11/14 09:21:09;;;;;;;60.00;27.90;;;13.50;99.90;;;;;;5066226;28;20174;-66
2021/11/14 09:23:35;;;;;;;67.35;30.65;;;13.50;99.90;;;;;;5066293;28;20232;-66
2021/11/14 09:26:01;;;;;;;62.50;29.23;;;13.50;99.90;;;;;;5065051;28;20161;-66
2021/11/14 09:28:27;;;;;;;65.80;29.40;;;13.30;99.90;;;;;;5066709;28;20160;-66
2021/11/14 09:30:53;;;;;;;60.55;27.98;;;13.20;99.90;;;;;;5066564;28;20291;-66
2021/11/14 09:33:22;;;;;;;68.63;31.02;;;13.30;99.90;;;;;;5065877;28;20539;-66
2021/11/14 09:35:50;;;;;;;68.80;30.80;;;13.30;99.90;;;;;;5064594;28;20168;-66
2021/11/14 09:38:17;;;;;;;68.55;31.58;;;13.30;99.90;;;;;;5066066;28;20196;-66
2021/11/14 09:40:43;;;;;;;73.03;32.85;;;13.20;99.90;;;;;;5065818;28;20172;-66
2021/11/14 09:43:09;;;;;;;67.63;31.92;;;13.30;99.90;;;;;;5065403;28;20204;-66
2021/11/14 09:45:37;;;;;;;72.32;32.80;;;13.40;99.90;;;;;;5065861;28;20161;-66
2021/11/14 09:48:03;;;;;;;66.10;30.83;;;13.30;99.90;;;;;;5065979;28;20172;-66
2021/11/14 09:50:30;;;;;;;64.38;30.48;;;13.30;99.90;;;;;;5066252;28;20161;-66
2021/11/14 09:52:56;;;;;;;66.97;31.27;;;13.20;99.90;;;;;;5064560;28;20649;-66
2021/11/14 09:55:24;;;;;;;66.05;30.73;;;13.20;99.90;;;;;;5066116;28;20239;-66
2021/11/14 09:57:51;;;;;;;61.67;29.23;;;13.20;99.90;;;;;;5066188;28;20187;-66
2021/11/14 10:00:19;;;;;;;60.00;28.50;;;13.20;99.90;;;;;;5065754;28;20192;-66
2021/11/14 10:02:45;;;;;;;58.20;28.77;;;13.30;99.90;;;;;;5064877;28;20557;-66
2021/11/14 10:05:12;;;;;;;66.63;29.13;;;13.30;99.90;;;;;;5065565;28;20188;-67
2021/11/14 10:07:41;;;;;;;63.17;28.95;;;13.30;99.90;;;;;;5065976;28;20156;-67
2021/11/14 10:10:09;;;;;;;61.97;28.38;;;13.40;99.90;;;;;;5065727;28;20161;-67
2021/11/14 10:12:38;;;;;;;65.40;29.42;;;13.40;99.90;;;;;;5065870;28;20595;-66
2021/11/14 10:15:10;;;;;;;58.50;27.65;;;13.50;99.90;;;;;;5065669;28;20172;-67
2021/11/14 10:17:37;;;;;;;58.30;26.85;;;13.60;99.90;;;;;;5065766;28;20179;-68
2021/11/14 10:20:11;;;;;;;55.95;27.73;;;13.60;99.90;;;;;;5065413;28;20165;-67
2021/11/14 10:22:43;;;;;;;55.17;26.08;;;13.70;99.90;;;;;;5065691;28;20562;-66
2021/11/14 10:25:11;;;;;;;61.92;28.17;;;13.80;99.90;;;;;;5065256;28;20161;-67
2021/11/14 10:27:37;;;;;;;61.30;30.67;;;13.90;99.90;;;;;;5064932;28;20471;-67
2021/11/14 10:30:06;;;;;;;62.47;29.00;;;14.10;99.90;;;;;;5065175;28;20520;-67
2021/11/14 10:32:32;;;;;;;58.75;26.95;;;14.00;99.90;;;;;;5064804;28;20222;-67
2021/11/14 10:34:59;;;;;;;55.80;26.23;;;14.00;99.90;;;;;;5065083;28;20160;-67
2021/11/14 10:37:27;;;;;;;61.65;27.55;;;14.00;99.90;;;;;;5065689;28;20161;-66
2021/11/14 10:39:55;;;;;;;62.55;27.50;;;14.00;99.90;;;;;;5065589;28;20256;-67
2021/11/14 10:42:24;;;;;;;65.28;27.70;;;13.80;99.90;;;;;;5065598;28;20192;-66
2021/11/14 10:44:56;;;;;;;68.43;28.77;;;13.70;99.90;;;;;;5065258;28;20160;-68
2021/11/14 10:47:23;;;;;;;70.32;26.67;;;13.80;99.90;;;;;;5065475;28;20168;-66
2021/11/14 10:49:57;;;;;;;65.32;28.83;;;13.70;99.90;;;;;;5065773;28;20215;-67
2021/11/14 10:52:28;;;;;;;64.50;26.92;;;13.80;99.90;;;;;;5065463;28;20633;-66
2021/11/14 10:54:56;;;;;;;60.47;27.55;;;13.80;99.90;;;;;;5065306;28;20299;-66
2021/11/14 10:57:29;;;;;;;65.45;28.65;;;13.80;99.90;;;;;;5065671;28;20681;-66
2021/11/14 10:59:55;;;;;;;69.93;29.40;;;13.80;99.90;;;;;;5065451;28;20165;-66
2021/11/14 11:02:22;;;;;;;66.60;29.70;;;13.80;99.90;;;;;;5064805;28;20258;-66
2021/11/14 11:04:50;;;;;;;72.25;29.77;;;13.80;99.90;;;;;;5065091;28;20165;-66
2021/11/14 11:07:16;;;;;;;78.05;32.83;;;13.70;99.90;;;;;;5065280;28;20172;-67
2021/11/14 11:09:43;;;;;;;78.55;32.30;;;13.70;99.90;;;;;;5065273;28;20171;-67
2021/11/14 11:12:20;;;;;;;71.82;31.90;;;13.70;99.90;;;;;;5065249;28;20161;-66
2021/11/14 11:15:06;;;;;;;66.68;29.77;;;13.80;99.90;;;;;;5066285;28;20200;-66
2021/11/14 11:17:51;;;;;;;69.60;30.45;;;13.80;99.90;;;;;;5068752;28;20168;-67
2021/11/14 11:20:29;;;;;;;68.57;31.80;;;13.80;99.90;;;;;;5068817;28;20164;-67
2021/11/14 11:23:07;;;;;;;67.35;30.30;;;13.70;99.90;;;;;;5068682;28;20196;-65
2021/11/14 11:25:54;;;;;;;67.95;32.13;;;13.60;99.90;;;;;;5068645;28;20186;-67
2021/11/14 11:28:25;;;;;;;70.90;31.15;;;13.60;99.90;;;;;;5067722;28;20177;-67
2021/11/14 11:31:00;;;;;;;74.32;33.60;;;13.60;99.90;;;;;;5068845;28;20168;-67
2021/11/14 11:33:28;;;;;;;71.88;33.85;;;13.60;99.90;;;;;;5066891;28;20180;-67
2021/11/14 11:35:55;;;;;;;75.82;34.08;;;13.60;99.90;;;;;;5068605;28;20191;-66
2021/11/14 11:38:21;;;;;;;71.25;32.75;;;13.60;99.90;;;;;;5068501;28;20240;-67
2021/11/14 11:40:48;;;;;;;68.20;30.73;;;13.70;99.90;;;;;;5067214;28;20584;-67
2021/11/14 11:43:15;;;;;;;69.05;31.98;;;13.70;99.90;;;;;;5068138;28;20200;-66
2021/11/14 11:45:44;;;;;;;67.95;31.67;;;13.60;99.90;;;;;;5068053;28;20184;-67
2021/11/14 11:48:24;;;;;;;63.53;30.52;;;13.50;99.90;;;;;;5067856;28;20252;-66
2021/11/14 11:50:51;;;;;;;62.60;30.10;;;13.50;99.90;;;;;;5068347;28;20182;-67
2021/11/14 11:53:28;;;;;;;61.50;29.58;;;13.40;99.90;;;;;;5068132;28;20195;-67
2021/11/14 11:56:20;;;;;;;57.67;28.45;;;13.40;99.90;;;;;;5066887;28;20239;-67
2021/11/14 11:58:50;;;;;;;57.08;28.50;;;13.40;99.90;;;;;;5066969;28;20177;-67
2021/11/14 12:01:25;;;;;;;59.80;28.80;;;13.30;99.90;;;;;;5066690;28;20195;-67
2021/11/14 12:03:53;;;;;;;55.10;28.42;;;13.30;99.90;;;;;;5067384;28;20211;-67
2021/11/14 12:06:24;;;;;;;53.70;28.25;;;13.40;99.90;;;;;;5067821;28;20163;-67
2021/11/14 12:08:57;;;;;;;54.85;28.25;;;13.40;99.90;;;;;;5067709;28;20142;-67
2021/11/14 12:11:28;;;;;;;57.30;28.75;;;13.30;99.90;;;;;;5068007;28;20663;-67
2021/11/14 12:13:55;;;;;;;56.60;28.85;;;13.30;99.90;;;;;;5067542;28;20681;-67
2021/11/14 12:16:26;;;;;;;56.05;28.55;;;13.40;99.90;;;;;;5067766;28;20188;-66
2021/11/14 12:18:52;;;;;;;55.58;28.85;;;13.40;99.90;;;;;;5067180;28;20184;-66
2021/11/14 12:21:21;;;;;;;58.22;28.90;;;13.40;99.90;;;;;;5067903;28;20172;-66
2021/11/14 12:23:56;;;;;;;59.65;29.70;;;13.50;99.90;;;;;;5067285;28;20164;-66
2021/11/14 12:26:34;;;;;;;51.88;27.98;;;13.50;99.90;;;;;;5067580;28;20156;-66
2021/11/14 12:29:05;;;;;;;59.38;29.13;;;13.50;99.90;;;;;;5067600;28;20618;-66
2021/11/14 12:31:43;;;;;;;55.85;29.10;;;13.40;99.90;;;;;;5067936;28;20153;-66